Historyczne dane pomiarowe

Dodano dane terminowe – wersja testowa.

Dane z okresu 1951-2019

Wersja bazy: 1.34 [2019-03-16, lista zmian], aktualizacja planowana na 2019-04-15

Dane meteo z obszaru Polski uzyskane na podstawie danych udostępnionych przez Instytut Meteorologii i Gospodarki Wodnej – Państwowy Instytut Badawczy.

 

Wybierz Datę:    

       

TemperaturaWilgotnośćWiatrCiśnienieOpadyŚniegCzas trwania zjawisk
 Stacja t tx tn tng RH VA  wxwx mslp ppp RRR   cm mm wxwxwxwxwxwxwx
1983-08-14 15.1 20.0 11.6--- 3.0 3.0---- 0.0------------
1983-08-13 15.5 21.1 12.8--- 3.3 1.3---- 0.0------------
1983-08-12 19.9 26.6 13.7--- 3.0 2.0---- 9.7------------
1983-08-11 21.2 29.3 12.6--- 0.7 0.3---- 0.0------------
1983-08-10 20.6 27.5 13.2--- 3.7 0.3---- 0.0------------
1983-08-09 20.1 27.4 13.3--- 1.3 1.0---- 0.0------------
1983-08-08 19.1 26.0 14.9--- 3.0 0.7---- 1.7------------
1983-08-07 15.7 22.2 10.4--- 7.0 0.7---- 18.8------------
1983-08-06 16.1 21.2 10.9--- 2.0 0.7---- 0.0------------
1983-08-05 13.8 17.4 10.7--- 6.7 0.7---- 0.0------------
1983-08-04 11.7 12.4 11.2--- 8.0 4.0---- 24.2------------
1983-08-03 15.7 25.0 12.2--- 8.0 2.7---- 36.0------------
1983-08-02 23.7 31.7 16.3--- 5.7 1.3---- 0.0------------
1983-08-01 25.4 36.5 12.0--- 0.7 1.3---- 0.6------------
1983-07-31 20.2 29.3 8.9--- 0.0 0.7---- 0.0------------
1983-07-30 19.1 22.4 16.2--- 3.7 2.7---- 0.0------------
1983-07-29 18.6 24.7 14.5--- 4.7 1.3---- 0.6------------
1983-07-28 24.2 30.0 18.9--- 0.7 1.3---- 0.0------------
1983-07-27 25.4 37.0 14.0--- 0.7 1.0---- 0.0------------
1983-07-26 21.8 31.2 11.4--- 0.0 0.3---- 0.0------------
1983-07-25 19.3 27.4 9.8--- 0.0 0.7---- 0.0------------
1983-07-24 19.5 27.5 12.1--- 5.0 1.0---- 0.0------------
1983-07-23 20.4 27.4 13.1--- 0.0 1.3---- 0.0------------
1983-07-22 15.3 20.4 12.0--- 7.0 1.3---- 0.0------------
1983-07-21 14.3 19.9 8.4--- 1.3 1.3---- 0.0------------
1983-07-20 15.5 21.0 12.9--- 8.0 2.0---- 2.3------------
1983-07-19 20.7 29.3 17.6--- 6.3 1.7---- 7.8------------
1983-07-18 26.2 35.7 16.0--- 1.7 2.0---- 5.0------------
1983-07-17 20.1 28.7 12.6--- 2.0 0.7---- 0.0------------
1983-07-16 19.5 28.2 15.7--- 5.7 1.0---- 20.7------------
1983-07-15 22.0 28.4 16.9--- 0.0 1.3---- 0.0------------
1983-07-14 20.4 26.4 15.5--- 4.0 1.3---- 0.0------------
1983-07-13 20.8 27.2 15.5--- 1.3 3.0---- 0.0------------
1983-07-12 24.0 31.7 16.8--- 4.0 1.7---- 0.5------------
1983-07-11 25.3 32.2 16.9--- 2.0 1.0---- 0.0------------
1983-07-10 24.9 32.0 14.8--- 0.3 0.7---- 0.0------------
1983-07-09 22.5 30.5 12.6--- 0.0 1.0---- 0.0------------
1983-07-08 23.0 30.1 12.9--- 0.0 0.7---- 0.0------------
1983-07-07 25.1 31.8 17.7--- 0.7 1.3---- 0.0------------
1983-07-06 23.3 31.6 11.9--- 0.0 1.0---- 0.0------------
1983-07-05 20.7 27.7 10.7--- 0.0 1.0---- 0.0------------
1983-07-04 21.4 28.7 13.5--- 0.0 1.3---- 0.0------------
1983-07-03 19.2 27.2 9.1--- 2.0 1.0---- 0.0------------
1983-07-02 18.8 24.2 12.4--- 1.3 0.7---- 0.0------------
1983-07-01 19.0 25.8 12.1--- 4.7 0.7---- 0.0------------
1983-06-30 20.6 26.7 12.5--- 3.3 1.0---- 0.0------------
1983-06-29 14.9 20.1 7.6--- 4.0 1.0---- 0.0------------
1983-06-28 15.5 19.8 12.6--- 2.7 6.0---- 0.0------------
1983-06-27 18.5 25.3 14.5--- 7.3 1.0---- 0.5------------
1983-06-26 21.2 28.0 12.5--- 1.7 0.7---- 0.0------------
1983-06-25 21.9 30.4 12.8--- 2.3 1.0---- 0.0------------
1983-06-24 20.3 30.6 6.0--- 0.0 0.3---- 0.0------------
1983-06-23 17.2 25.6 5.9--- 0.0 1.0---- 0.0------------
1983-06-22 17.2 25.4 11.0--- 0.0 2.0---- 0.0------------
1983-06-21 21.6 28.0 11.6--- 1.0 1.3---- 0.0------------
1983-06-20 19.0 26.4 12.1--- 1.3 2.3---- 0.0------------
1983-06-19 17.6 24.4 11.0--- 1.7 1.3---- 0.0------------
1983-06-18 14.5 17.7 9.5--- 8.0 1.3---- 0.0------------
1983-06-17 13.3 15.8 8.9--- 6.3 1.3---- 0.3------------
1983-06-16 12.7 17.4 9.6--- 4.7 2.3---- 0.0------------
415.0 ms

 

Źródłem pochodzenia danych jest Instytut Meteorologii i Gospodarki Wodnej – Państwowy Instytut Badawczy. Dane Instytutu Meteorologii i Gospodarki Wodnej – Państwowego Instytutu Badawczego zostały przetworzone.

Dane źródłowe można odnaleźć na stronie https://dane.imgw.pl